createdAt,value
2019-01-23T00:03:53.205Z,99930.70
2019-01-23T00:09:05.172Z,99929.34
2019-01-23T00:14:17.166Z,99905.44
2019-01-23T00:19:27.250Z,99905.44
2019-01-23T00:24:36.429Z,99903.50
2019-01-23T00:29:49.202Z,99897.25
2019-01-23T00:34:59.224Z,99891.20
2019-01-23T00:40:11.259Z,99887.02
2019-01-23T00:45:21.015Z,99875.95
2019-01-23T00:50:29.434Z,99868.62
2019-01-23T00:55:41.479Z,99862.92
2019-01-23T01:00:52.811Z,99860.44
2019-01-23T01:06:12.291Z,99852.19
2019-01-23T01:11:19.742Z,99854.38
2019-01-23T01:16:27.947Z,99853.09
2019-01-23T01:21:37.940Z,99849.98
2019-01-23T01:26:50.637Z,99850.27
2019-01-23T01:32:02.403Z,99846.95
2019-01-23T01:37:11.787Z,99840.96
2019-01-23T01:42:20.019Z,99837.16
2019-01-23T01:47:28.597Z,99852.88
2019-01-23T01:52:37.584Z,99821.39
2019-01-23T01:57:49.489Z,99835.87
2019-01-23T02:02:57.847Z,99833.52
2019-01-23T02:08:07.476Z,99825.20
2019-01-23T02:13:17.483Z,99825.20
2019-01-23T02:18:28.526Z,99830.36
2019-01-23T02:23:41.614Z,99830.94
2019-01-23T02:28:54.616Z,99827.90
2019-01-23T02:34:05.592Z,99826.93
2019-01-23T02:39:16.630Z,99820.73
2019-01-23T02:44:30.863Z,99818.13
2019-01-23T02:49:48.157Z,99820.11
2019-01-23T02:54:55.647Z,99805.34
2019-01-23T03:00:07.724Z,99808.61
2019-01-23T03:05:17.445Z,99787.23
2019-01-23T03:10:25.658Z,99787.23
2019-01-23T03:15:39.775Z,99784.14
2019-01-23T03:20:52.599Z,99784.94
2019-01-23T03:26:10.894Z,99784.56
2019-01-23T03:31:20.216Z,99782.70
2019-01-23T03:36:33.069Z,99775.41
2019-01-23T03:41:42.189Z,99776.47
2019-01-23T03:46:58.544Z,99776.62
2019-01-23T03:52:11.429Z,99772.25
2019-01-23T03:57:24.624Z,99776.27
2019-01-23T04:02:36.465Z,99776.39
2019-01-23T04:07:48.457Z,99776.16
2019-01-23T04:12:56.931Z,99776.55
2019-01-23T04:18:07.761Z,99778.00
2019-01-23T04:23:23.237Z,99774.56
2019-01-23T04:28:33.155Z,99772.93
2019-01-23T04:33:46.788Z,99777.83
2019-01-23T04:38:58.837Z,99778.34
2019-01-23T04:44:09.678Z,99787.34
2019-01-23T04:49:21.508Z,99785.02
2019-01-23T04:54:34.355Z,99783.62
2019-01-23T05:00:05.029Z,99782.84
2019-01-23T05:05:22.254Z,99784.52
2019-01-23T05:10:34.021Z,99786.33
2019-01-23T05:15:44.891Z,99785.53
2019-01-23T05:20:54.437Z,99780.00
2019-01-23T05:26:04.373Z,99779.19
2019-01-23T05:31:13.734Z,99775.70
2019-01-23T05:37:26.187Z,99781.56
2019-01-23T05:42:36.743Z,99791.23
2019-01-23T05:47:46.624Z,99793.53
2019-01-23T05:52:56.210Z,99800.59
2019-01-23T05:58:14.989Z,99799.64
2019-01-23T06:03:27.630Z,99797.89
2019-01-23T06:08:37.048Z,99807.41
2019-01-23T06:13:50.114Z,99808.28
2019-01-23T06:18:57.590Z,99813.85
2019-01-23T06:24:12.146Z,99811.73
2019-01-23T06:29:21.659Z,99815.87
2019-01-23T06:34:38.598Z,99818.50
2019-01-23T06:39:45.012Z,99816.17
2019-01-23T06:44:58.909Z,99817.71
2019-01-23T06:50:13.063Z,99819.38
2019-01-23T06:55:27.429Z,99816.95
2019-01-23T07:00:40.687Z,99820.34
2019-01-23T07:05:48.160Z,99820.34
2019-01-23T07:10:57.326Z,99828.67
2019-01-23T07:16:09.547Z,99818.50
2019-01-23T07:21:19.796Z,99818.50
2019-01-23T07:26:37.475Z,99827.23
2019-01-23T07:31:45.351Z,99828.59
2019-01-23T07:36:58.284Z,99835.63
2019-01-23T07:42:08.971Z,99839.86
2019-01-23T07:47:23.398Z,99846.36
2019-01-23T07:52:36.148Z,99861.11
2019-01-23T07:57:45.371Z,99861.11
2019-01-23T08:02:52.819Z,99861.48
2019-01-23T08:08:03.587Z,99835.81
2019-01-23T08:13:16.701Z,99865.33
2019-01-23T08:18:25.607Z,99865.33
2019-01-23T08:23:36.781Z,99868.75
2019-01-23T08:28:45.587Z,99866.62
2019-01-23T08:33:57.345Z,99866.39
2019-01-23T08:39:09.863Z,99863.52
2019-01-23T08:44:23.373Z,99876.55
2019-01-23T08:49:34.651Z,99874.16
2019-01-23T08:54:49.142Z,99885.75
2019-01-23T09:00:01.702Z,99877.33
2019-01-23T09:05:13.896Z,99890.35
2019-01-23T09:10:22.614Z,99890.35
2019-01-23T09:15:30.725Z,99907.13
2019-01-23T09:20:41.883Z,99912.27
2019-01-23T09:25:51.608Z,99912.73
2019-01-23T09:31:13.891Z,99912.73
2019-01-23T09:36:50.613Z,99917.88
2019-01-23T09:42:26.339Z,99930.19
2019-01-23T09:47:51.522Z,99927.42
2019-01-23T09:53:23.987Z,99942.02
2019-01-23T09:58:37.671Z,99942.23
2019-01-23T10:03:51.228Z,99945.88
2019-01-23T10:09:03.809Z,99944.86
2019-01-23T10:14:15.014Z,99949.89
2019-01-23T10:19:29.612Z,99938.67
2019-01-23T10:24:38.714Z,99950.52
2019-01-23T10:29:44.820Z,99957.20
2019-01-23T10:34:52.928Z,99958.61
2019-01-23T10:40:01.137Z,99965.83
2019-01-23T10:45:08.255Z,99970.88
2019-01-23T10:50:28.062Z,99971.88
2019-01-23T10:55:38.050Z,99973.78
2019-01-23T11:00:53.617Z,99977.89
2019-01-23T11:06:05.541Z,99974.48
2019-01-23T11:11:15.710Z,99982.81
2019-01-23T11:16:26.589Z,99983.20
2019-01-23T11:21:36.469Z,99978.41
2019-01-23T11:26:49.431Z,99978.80
2019-01-23T11:32:02.179Z,99974.24
2019-01-23T11:37:15.628Z,99976.45
2019-01-23T11:42:28.301Z,99977.66
2019-01-23T11:47:39.974Z,99978.98
2019-01-23T11:52:55.298Z,99983.26
2019-01-23T11:58:05.996Z,99993.52
2019-01-23T12:03:22.566Z,99994.28
2019-01-23T12:08:33.731Z,99991.72
2019-01-23T12:13:47.298Z,99994.48
2019-01-23T12:19:01.698Z,99996.66
2019-01-23T12:24:10.980Z,99993.10
2019-01-23T12:29:23.529Z,99997.75
2019-01-23T12:34:36.964Z,100003.24
2019-01-23T12:39:45.296Z,100015.56
2019-01-23T12:44:54.693Z,100024.82
2019-01-23T12:50:03.918Z,100023.66
2019-01-23T12:55:15.367Z,100023.72
2019-01-23T13:00:31.299Z,100029.95
2019-01-23T13:05:42.232Z,100029.28
2019-01-23T13:10:53.050Z,100037.11
2019-01-23T13:16:01.288Z,100036.52
2019-01-23T13:21:08.962Z,100035.00
2019-01-23T13:26:18.783Z,100045.95
2019-01-23T13:31:28.809Z,100040.63
2019-01-23T13:36:39.139Z,100041.09
2019-01-23T13:41:48.070Z,100048.09
2019-01-23T13:46:59.822Z,100040.34
2019-01-23T13:52:09.456Z,100044.89
2019-01-23T13:57:21.803Z,100049.80
2019-01-23T14:02:29.268Z,100065.83
2019-01-23T14:07:43.053Z,100070.77
2019-01-23T14:12:56.380Z,100071.45
2019-01-23T14:18:10.150Z,100080.20
2019-01-23T14:23:21.288Z,100082.36
2019-01-23T14:28:31.226Z,100085.56
2019-01-23T14:33:42.290Z,100081.25
2019-01-23T14:38:49.860Z,100097.27
2019-01-23T14:44:06.032Z,100103.94
2019-01-23T14:49:15.047Z,100109.10
2019-01-23T14:54:20.956Z,100121.09
2019-01-23T14:59:31.209Z,100128.34
2019-01-23T15:04:40.186Z,100138.74
2019-01-23T15:09:51.068Z,100139.69
2019-01-23T15:14:58.385Z,100147.51
2019-01-23T15:20:06.893Z,100161.17
2019-01-23T15:25:16.111Z,100168.70
2019-01-23T15:30:28.900Z,100169.88
2019-01-23T15:35:38.805Z,100174.25
2019-01-23T15:40:48.625Z,100193.25
2019-01-23T15:46:01.328Z,100196.23
2019-01-23T15:51:09.330Z,100206.83
2019-01-23T15:56:16.194Z,100209.97
2019-01-23T16:01:29.352Z,100213.37
2019-01-23T16:06:44.593Z,100228.45
2019-01-23T16:11:57.233Z,100237.82
2019-01-23T16:17:07.051Z,100249.67
2019-01-23T16:22:14.356Z,100258.73
2019-01-23T16:27:21.982Z,100261.88
2019-01-23T16:32:35.538Z,100269.93
2019-01-23T16:37:43.477Z,100275.54
2019-01-23T16:43:03.258Z,100286.73
2019-01-23T16:48:11.896Z,100294.78
2019-01-23T16:53:24.777Z,100303.11
2019-01-23T16:58:35.612Z,100302.67
2019-01-23T17:03:46.373Z,100302.30
2019-01-23T17:08:56.147Z,100306.67
2019-01-23T17:14:11.462Z,100315.63
2019-01-23T17:19:21.323Z,100319.55
2019-01-23T17:24:32.079Z,100332.46
2019-01-23T17:29:49.892Z,100337.64
2019-01-23T17:35:01.683Z,100343.72
2019-01-23T17:40:17.482Z,100356.13
2019-01-23T17:45:48.329Z,100356.94
2019-01-23T17:51:04.074Z,100360.80
2019-01-23T17:56:16.454Z,100365.16
2019-01-23T18:01:24.883Z,100366.00
2019-01-23T18:06:34.790Z,100375.51
2019-01-23T18:11:49.029Z,100381.91
2019-01-23T18:17:06.886Z,100388.77
2019-01-23T18:22:19.594Z,100393.89
2019-01-23T18:27:30.048Z,100406.36
2019-01-23T18:32:41.355Z,100402.89
2019-01-23T18:38:36.717Z,100411.97
2019-01-23T18:44:38.630Z,100410.30
2019-01-23T18:50:25.062Z,100410.31
2019-01-23T18:55:39.172Z,100413.28
2019-01-23T19:00:47.774Z,100417.60
2019-01-23T19:05:58.550Z,100419.30
2019-01-23T19:11:31.527Z,100417.18
2019-01-23T19:16:42.451Z,100426.58
2019-01-23T19:21:55.883Z,100427.02
2019-01-23T19:27:05.764Z,100446.78
2019-01-23T19:37:24.268Z,100442.52
2019-01-23T19:42:34.670Z,100458.82
2019-01-23T19:47:45.474Z,100463.53
2019-01-23T19:52:55.315Z,100465.27
2019-01-23T19:58:15.187Z,100465.25
2019-01-23T20:03:25.480Z,100467.83
2019-01-23T20:08:36.029Z,100478.55
2019-01-23T20:13:44.152Z,100481.14
2019-01-23T20:18:53.328Z,100488.41
2019-01-23T20:24:08.452Z,100497.84
2019-01-23T20:29:18.618Z,100501.69
2019-01-23T20:34:29.423Z,100495.70
2019-01-23T20:39:37.129Z,100496.57
2019-01-23T20:44:51.353Z,100507.70
2019-01-23T20:50:01.385Z,100499.98
2019-01-23T20:55:09.651Z,100517.58
2019-01-23T21:00:21.124Z,100527.00
2019-01-23T21:05:34.632Z,100536.87
2019-01-23T21:10:46.726Z,100533.44
2019-01-23T21:15:56.091Z,100532.16
2019-01-23T21:21:03.836Z,100540.31
2019-01-23T21:26:12.882Z,100544.59
2019-01-23T21:31:21.093Z,100552.29
2019-01-23T21:36:30.088Z,100553.13
2019-01-23T21:41:42.681Z,100548.86
2019-01-23T21:46:54.414Z,100557.47
2019-01-23T21:52:07.524Z,100560.44
2019-01-23T21:57:16.014Z,100570.73
2019-01-23T22:02:25.963Z,100583.16
2019-01-23T22:07:33.503Z,100589.14
2019-01-23T22:12:41.531Z,100589.97
2019-01-23T22:17:52.309Z,100592.58
2019-01-23T22:23:01.921Z,100601.23
2019-01-23T22:28:11.914Z,100601.57
2019-01-23T22:33:23.567Z,100601.16
2019-01-23T22:38:35.820Z,100614.08
2019-01-23T22:43:49.933Z,100622.22
2019-01-23T22:49:02.608Z,100628.20
2019-01-23T22:54:12.427Z,100634.61
2019-01-23T22:59:21.427Z,100636.40
2019-01-23T23:04:33.159Z,100641.55
2019-01-23T23:09:42.613Z,100642.38
2019-01-23T23:14:50.697Z,100648.81
2019-01-23T23:20:16.841Z,100653.06
2019-01-23T23:25:24.691Z,100662.97
2019-01-23T23:30:34.549Z,100674.53
2019-01-23T23:35:48.964Z,100687.81
2019-01-23T23:41:02.000Z,100694.77
2019-01-23T23:46:13.581Z,100698.19
2019-01-23T23:51:23.464Z,100698.19
2019-01-23T23:56:34.403Z,100699.90
